createdAt,value
2022-08-26T06:26:11.289Z,24.15
2022-08-26T06:29:15.563Z,24.41
2022-08-26T06:32:27.358Z,24.53
2022-08-26T06:35:30.405Z,24.85
2022-08-26T06:38:34.070Z,24.79
2022-08-26T06:41:45.079Z,25.30
2022-08-26T06:44:51.171Z,26.01
2022-08-26T06:47:54.274Z,26.89
2022-08-26T06:51:22.343Z,26.75
2022-08-26T06:54:31.719Z,26.75
2022-08-26T06:57:37.708Z,26.77
2022-08-26T07:00:47.203Z,26.65
2022-08-26T07:03:52.939Z,26.71
2022-08-26T07:06:57.370Z,26.68
2022-08-26T07:10:00.178Z,26.63
2022-08-26T07:13:04.682Z,26.95
2022-08-26T07:16:12.076Z,27.11
2022-08-26T07:19:27.602Z,27.18
2022-08-26T07:22:34.348Z,26.79
2022-08-26T07:25:42.258Z,26.96
2022-08-26T07:28:48.829Z,27.24
2022-08-26T07:31:52.089Z,27.50
2022-08-26T07:34:54.851Z,27.26
2022-08-26T07:37:57.887Z,27.40
2022-08-26T07:41:01.844Z,27.29
2022-08-26T07:44:05.314Z,27.42
2022-08-26T07:47:10.466Z,27.45
2022-08-26T07:50:49.223Z,27.85
2022-08-26T07:53:52.504Z,27.81
2022-08-26T07:56:56.198Z,27.86
2022-08-26T07:59:59.778Z,28.08
2022-08-26T08:03:05.719Z,28.22
2022-08-26T08:06:09.737Z,28.46
2022-08-26T08:09:16.107Z,28.83
2022-08-26T08:12:20.573Z,28.58
2022-08-26T08:15:26.603Z,28.46
2022-08-26T08:18:29.714Z,28.69
2022-08-26T08:21:32.420Z,28.93
2022-08-26T08:24:35.832Z,28.95
2022-08-26T08:27:40.213Z,29.20
2022-08-26T08:30:43.222Z,29.28
2022-08-26T08:33:47.471Z,29.74
2022-08-26T08:36:53.564Z,29.47
2022-08-26T08:39:56.836Z,29.52
2022-08-26T08:43:04.056Z,29.52
2022-08-26T08:46:16.749Z,29.66
2022-08-26T08:49:25.955Z,29.78
2022-08-26T08:52:35.212Z,29.72
2022-08-26T08:56:17.150Z,29.79
2022-08-26T08:59:26.423Z,29.65
2022-08-26T09:02:37.200Z,30.11
2022-08-26T09:05:48.563Z,30.08
2022-08-26T09:08:52.415Z,30.10
2022-08-26T09:12:01.748Z,30.45
2022-08-26T09:15:11.493Z,30.31
2022-08-26T09:18:47.682Z,30.66
2022-08-26T09:21:56.868Z,30.86
2022-08-26T09:24:59.638Z,31.14
2022-08-26T09:28:02.908Z,31.14
2022-08-26T09:31:20.106Z,30.99
2022-08-26T09:34:28.418Z,30.60
2022-08-26T09:41:26.699Z,31.40
2022-08-26T09:44:29.913Z,31.24
2022-08-26T09:47:48.078Z,31.48
2022-08-26T09:50:58.249Z,31.90
2022-08-26T09:54:05.700Z,31.39
2022-08-26T09:57:20.949Z,31.79
2022-08-26T10:00:27.529Z,32.07
2022-08-26T10:03:33.331Z,31.29
2022-08-26T10:06:43.033Z,31.50
2022-08-26T10:46:41.369Z,32.01
2022-08-26T10:49:47.711Z,31.76
2022-08-26T10:53:10.628Z,32.00
2022-08-26T10:56:44.826Z,31.50
2022-08-26T11:00:27.567Z,31.92
2022-08-26T11:03:48.890Z,31.89
2022-08-26T11:07:31.734Z,31.84
2022-08-26T11:10:59.495Z,31.60
2022-08-26T11:14:07.660Z,32.17
2022-08-26T11:17:11.789Z,32.02
2022-08-26T11:20:23.901Z,31.65
2022-08-26T11:23:38.609Z,31.62
2022-08-26T11:26:55.483Z,31.75
2022-08-26T11:30:18.359Z,31.53
2022-08-26T11:33:43.953Z,32.08
2022-08-26T11:36:47.332Z,31.73
2022-08-26T11:39:57.028Z,31.60
2022-08-26T11:43:08.518Z,31.96
2022-08-26T11:46:13.021Z,31.40
2022-08-26T11:49:17.409Z,31.41
2022-08-26T11:52:22.287Z,31.92
2022-08-26T11:55:28.020Z,31.68
2022-08-26T11:58:32.182Z,31.72
2022-08-26T12:01:40.687Z,31.72
2022-08-26T12:04:48.579Z,31.56
2022-08-26T12:07:53.065Z,31.68
2022-08-26T12:11:10.684Z,31.50
2022-08-26T12:14:25.415Z,31.33
2022-08-26T12:17:31.898Z,31.54
2022-08-26T12:20:46.567Z,31.95
2022-08-26T12:23:52.792Z,31.88
2022-08-26T12:27:15.254Z,31.80
2022-08-26T12:30:24.369Z,31.60
2022-08-26T12:33:29.767Z,31.63
2022-08-26T12:36:55.477Z,31.72
2022-08-26T12:40:40.743Z,31.60
2022-08-26T12:43:45.393Z,31.17
2022-08-26T12:46:49.847Z,31.44
2022-08-26T12:50:22.130Z,31.62
2022-08-26T12:53:40.901Z,31.67
2022-08-26T12:56:43.981Z,31.90
2022-08-26T12:59:46.732Z,31.82
2022-08-26T13:02:49.849Z,31.41
2022-08-26T13:06:34.759Z,31.79
2022-08-26T13:09:38.545Z,31.47
2022-08-26T13:12:42.039Z,31.89
2022-08-26T13:15:45.073Z,31.82
2022-08-26T13:18:49.413Z,31.53
2022-08-26T13:21:55.879Z,31.60
2022-08-26T13:24:58.644Z,31.63
2022-08-26T13:28:04.444Z,31.48
2022-08-26T13:31:07.216Z,31.59
2022-08-26T13:34:14.238Z,31.48
2022-08-26T13:37:17.141Z,31.58
2022-08-26T13:40:20.255Z,31.75
2022-08-26T13:43:23.048Z,31.52
2022-08-26T13:46:27.341Z,31.61
2022-08-26T13:49:30.266Z,31.90
2022-08-26T13:52:33.462Z,31.75
2022-08-26T13:55:36.314Z,31.74
2022-08-26T13:58:39.422Z,31.80
2022-08-26T14:01:42.390Z,31.73
2022-08-26T14:04:45.387Z,31.90
2022-08-26T14:07:48.072Z,31.63
2022-08-26T14:10:51.180Z,31.95
2022-08-26T14:13:53.873Z,32.03
2022-08-26T14:16:59.385Z,31.92
2022-08-26T14:20:03.067Z,32.07
2022-08-26T14:23:14.422Z,31.50
2022-08-26T14:26:28.435Z,31.94
2022-08-26T14:29:34.723Z,31.87
2022-08-26T14:32:42.951Z,31.80
2022-08-26T14:35:47.992Z,31.84
2022-08-26T14:38:52.470Z,31.79
2022-08-26T14:41:56.633Z,31.59
2022-08-26T14:45:02.956Z,31.76
2022-08-26T14:48:06.012Z,31.71
2022-08-26T14:51:08.848Z,31.84
2022-08-26T14:54:13.561Z,31.66
2022-08-26T14:57:16.460Z,31.45
2022-08-26T15:00:20.835Z,31.44
2022-08-26T15:03:23.591Z,31.57
2022-08-26T15:06:27.543Z,31.83
2022-08-26T15:09:33.396Z,31.64
2022-08-26T15:12:36.388Z,31.59
2022-08-26T15:15:39.206Z,31.39
2022-08-26T15:18:42.328Z,31.36
2022-08-26T15:21:47.052Z,31.56
2022-08-26T15:24:53.627Z,31.78
2022-08-26T15:27:56.652Z,31.50
2022-08-26T15:31:00.615Z,31.48
2022-08-26T15:34:06.770Z,31.60
2022-08-26T15:37:10.142Z,31.53
2022-08-26T15:40:12.940Z,31.42
2022-08-26T15:43:28.717Z,31.38
2022-08-26T15:46:32.151Z,31.06
2022-08-26T15:49:35.292Z,31.25
2022-08-26T15:52:40.259Z,31.19
2022-08-26T15:55:43.398Z,31.01
2022-08-26T15:58:46.840Z,30.50
2022-08-26T16:01:51.529Z,30.48
2022-08-26T16:04:54.600Z,30.26
2022-08-26T16:07:57.876Z,30.54
2022-08-26T16:11:03.716Z,30.05
2022-08-26T16:14:07.232Z,30.32
2022-08-26T16:17:11.556Z,30.33
2022-08-26T16:20:14.219Z,30.06
2022-08-26T16:23:18.102Z,30.06
2022-08-26T16:26:25.768Z,29.97
2022-08-26T16:29:28.874Z,29.93
2022-08-26T16:32:31.661Z,29.51
2022-08-26T16:35:35.323Z,29.31
2022-08-26T16:38:39.005Z,29.04
2022-08-26T16:41:42.323Z,28.70
2022-08-26T16:44:45.159Z,28.42
2022-08-26T16:47:48.768Z,28.19
2022-08-26T16:50:52.042Z,27.96
2022-08-26T16:53:56.583Z,27.76
2022-08-26T16:56:59.294Z,27.42
2022-08-26T17:00:06.555Z,27.30
2022-08-26T17:03:09.488Z,27.15
2022-08-26T17:06:13.182Z,26.88
2022-08-26T17:09:16.022Z,26.75
2022-08-26T17:12:19.122Z,26.61
2022-08-26T17:15:25.468Z,26.49
2022-08-26T17:18:30.113Z,26.34
2022-08-26T17:21:34.954Z,26.26
2022-08-26T17:24:38.003Z,26.16
2022-08-26T17:27:40.997Z,26.10
2022-08-26T17:30:46.180Z,26.03
2022-08-26T17:33:53.957Z,25.89
2022-08-26T17:36:57.294Z,25.74
2022-08-26T17:40:00.163Z,25.66
2022-08-26T17:43:03.226Z,25.51
2022-08-26T17:46:08.825Z,25.40
2022-08-26T17:49:11.955Z,25.28
2022-08-26T17:52:14.738Z,25.13
2022-08-26T17:55:19.168Z,25.03
2022-08-26T17:58:23.788Z,24.93
2022-08-26T18:01:28.407Z,24.78
2022-08-26T18:04:31.940Z,24.65
2022-08-26T18:07:39.035Z,24.54
2022-08-26T18:10:47.323Z,24.25
2022-08-26T18:13:50.215Z,24.08
2022-08-26T18:16:53.615Z,23.99
2022-08-26T18:20:04.158Z,23.86
2022-08-26T18:23:07.584Z,23.75
2022-08-26T18:26:16.450Z,23.74
2022-08-26T18:29:19.702Z,23.67
2022-08-26T18:32:30.687Z,23.61
2022-08-26T18:35:42.231Z,23.56
2022-08-26T18:39:06.893Z,23.41
2022-08-26T18:42:09.948Z,23.30
2022-08-26T18:45:16.070Z,23.29
2022-08-26T18:48:19.899Z,23.12
2022-08-26T18:51:26.351Z,23.10
